Time;durP1;ratioP1;P1;durP2;ratioP2;P2;SDS_P1;SDS_P2;PMS_P1;PMS_P2;Temp;Humidity;BMP_temperature;BMP_pressure;BME280_temperature;BME280_humidity;BME280_pressure;Samples;Min_cycle;Max_cycle;Signal;HPM_P1;HPM_P2
2022/06/14 00:02:30;;;;;;;6.35;5.13;;;;;;;;;;5177706;27;20073;-59
2022/06/14 00:04:57;;;;;;;8.50;5.53;;;;;;;;;;5177694;27;20050;-59
2022/06/14 00:07:25;;;;;;;8.15;5.53;;;;;;;;;;5177518;27;20117;-59
2022/06/14 00:09:52;;;;;;;7.03;5.53;;;;;;;;;;5177523;27;20049;-59
2022/06/14 00:12:19;;;;;;;12.05;7.10;;;;;;;;;;5177720;27;20097;-58
2022/06/14 00:14:47;;;;;;;6.75;5.45;;;;;;;;;;5177636;27;20049;-59
2022/06/14 00:17:14;;;;;;;6.10;4.88;;;;;;;;;;5177678;27;20122;-60
2022/06/14 00:19:41;;;;;;;7.47;6.13;;;;;;;;;;5158839;27;20046;-59
2022/06/14 00:22:10;;;;;;;8.15;6.13;;;;;;;;;;5177054;27;20824;-59
2022/06/14 00:24:38;;;;;;;19.98;6.05;;;;;;;;;;5162186;27;20045;-59
2022/06/14 00:27:05;;;;;;;6.45;5.07;;;;;;;;;;5156214;27;20045;-59
2022/06/14 00:29:33;;;;;;;24.73;5.82;;;;;;;;;;5156345;27;20075;-59
2022/06/14 00:32:00;;;;;;;15.57;8.65;;;;;;;;;;5156339;27;20045;-59
2022/06/14 00:34:27;;;;;;;21.02;7.50;;;;;;;;;;5156118;27;20111;-60
2022/06/14 00:36:56;;;;;;;8.95;4.60;;;;;;;;;;5156172;27;20062;-59
2022/06/14 00:39:23;;;;;;;8.02;5.80;;;;;;;;;;5156152;27;20043;-59
2022/06/14 00:41:54;;;;;;;7.13;5.38;;;;;;;;;;5156208;27;20043;-59
2022/06/14 00:44:25;;;;;;;7.00;5.50;;;;;;;;;;5155901;27;20050;-58
2022/06/14 00:46:53;;;;;;;8.35;5.25;;;;;;;;;;5137612;27;20045;-59
2022/06/14 00:49:25;;;;;;;9.10;5.70;;;;;;;;;;5155760;27;20049;-59
2022/06/14 00:51:59;;;;;;;9.07;6.75;;;;;;;;;;5155949;27;20095;-59
2022/06/14 00:54:37;;;;;;;7.50;5.20;;;;;;;;;;5155926;27;20041;-59
2022/06/14 00:57:18;;;;;;;6.60;5.20;;;;;;;;;;5155826;27;20438;-58
2022/06/14 00:59:57;;;;;;;7.72;5.82;;;;;;;;;;5155912;27;20042;-59
2022/06/14 01:02:30;;;;;;;6.53;5.63;;;;;;;;;;5135007;27;20409;-59
2022/06/14 01:05:01;;;;;;;7.55;6.50;;;;;;;;;;5116299;27;20502;-59
2022/06/14 01:07:33;;;;;;;9.35;6.78;;;;;;;;;;5134889;27;20049;-59
2022/06/14 01:10:05;;;;;;;7.82;6.25;;;;;;;;;;5134853;27;20413;-58
2022/06/14 01:12:36;;;;;;;10.73;5.78;;;;;;;;;;5134998;27;20035;-63
2022/06/14 01:15:06;;;;;;;9.48;6.35;;;;;;;;;;5134839;27;20031;-59
2022/06/14 01:17:41;;;;;;;9.18;6.45;;;;;;;;;;5134754;27;20046;-60
2022/06/14 01:20:14;;;;;;;7.30;5.18;;;;;;;;;;5117042;27;20118;-58
2022/06/14 01:22:42;;;;;;;12.05;6.45;;;;;;;;;;5134579;27;20039;-58
2022/06/14 01:25:12;;;;;;;10.20;5.85;;;;;;;;;;5173587;27;20457;-60
2022/06/14 01:27:41;;;;;;;5.68;5.00;;;;;;;;;;5176085;27;20041;-59
2022/06/14 01:30:16;;;;;;;5.35;4.40;;;;;;;;;;5176056;27;20519;-59
2022/06/14 01:32:54;;;;;;;13.18;7.43;;;;;;;;;;5175888;27;20056;-59
2022/06/14 01:35:25;;;;;;;10.80;7.00;;;;;;;;;;5176194;27;20037;-57
2022/06/14 01:37:56;;;;;;;7.97;4.60;;;;;;;;;;5175900;27;20038;-60
2022/06/14 01:40:36;;;;;;;9.20;7.13;;;;;;;;;;5175966;27;20496;-60
2022/06/14 01:43:11;;;;;;;7.60;5.13;;;;;;;;;;5175694;27;20030;-60
2022/06/14 01:46:04;;;;;;;8.77;5.07;;;;;;;;;;5175627;27;20050;-58
2022/06/14 01:48:56;;;;;;;6.25;5.05;;;;;;;;;;5175587;27;20121;-59
2022/06/14 01:51:51;;;;;;;8.00;5.43;;;;;;;;;;5175600;27;20038;-59
2022/06/14 01:54:36;;;;;;;10.40;5.47;;;;;;;;;;5175623;27;20473;-60
2022/06/14 01:57:10;;;;;;;11.27;5.65;;;;;;;;;;5175369;27;20054;-60
2022/06/14 01:59:37;;;;;;;7.18;6.28;;;;;;;;;;5175547;27;20039;-59
2022/06/14 02:02:31;;;;;;;6.78;5.28;;;;;;;;;;5175249;27;20034;-59
2022/06/14 02:05:07;;;;;;;10.10;6.43;;;;;;;;;;5175097;27;20046;-59
2022/06/14 02:07:45;;;;;;;7.75;5.70;;;;;;;;;;5175248;27;20053;-60
2022/06/14 02:10:16;;;;;;;6.05;5.18;;;;;;;;;;5175157;27;20046;-60
2022/06/14 02:13:04;;;;;;;8.15;6.15;;;;;;;;;;5175168;27;20034;-60
2022/06/14 02:15:45;;;;;;;7.28;5.57;;;;;;;;;;5174834;27;20058;-59
2022/06/14 02:18:23;;;;;;;10.75;6.95;;;;;;;;;;5175083;27;20042;-59
2022/06/14 02:21:01;;;;;;;12.85;7.53;;;;;;;;;;5174912;27;20034;-60
2022/06/14 02:23:35;;;;;;;8.02;6.82;;;;;;;;;;5169918;27;20125;-59
2022/06/14 02:26:07;;;;;;;;;;;;;;;;;;5136861;27;20038;-60
2022/06/14 02:28:40;;;;;;;9.05;6.80;;;;;;;;;;5154216;27;20274;-60
2022/06/14 02:31:16;;;;;;;9.40;8.38;;;;;;;;;;5153863;27;20397;-59
2022/06/14 02:33:55;;;;;;;7.68;6.28;;;;;;;;;;5154117;27;20062;-60
2022/06/14 02:36:31;;;;;;;8.80;6.40;;;;;;;;;;5154108;27;20091;-60
2022/06/14 02:39:09;;;;;;;7.70;6.78;;;;;;;;;;5153852;27;20048;-60
2022/06/14 02:42:05;;;;;;;8.40;6.93;;;;;;;;;;5153980;27;20041;-60
2022/06/14 02:44:59;;;;;;;8.63;5.90;;;;;;;;;;5145935;27;20523;-59
2022/06/14 02:47:42;;;;;;;8.57;7.22;;;;;;;;;;5154066;27;20039;-60
2022/06/14 02:50:21;;;;;;;9.88;6.88;;;;;;;;;;5135492;27;20038;-60
2022/06/14 02:52:55;;;;;;;11.82;7.00;;;;;;;;;;5153962;27;20428;-60
2022/06/14 02:55:37;;;;;;;8.13;5.72;;;;;;;;;;5153728;27;20497;-59
2022/06/14 02:58:20;;;;;;;6.78;5.55;;;;;;;;;;5153904;27;20485;-60
2022/06/14 03:01:01;;;;;;;6.77;6.07;;;;;;;;;;5135783;27;20501;-58
2022/06/14 03:03:38;;;;;;;6.93;6.07;;;;;;;;;;5153617;27;20347;-60
2022/06/14 03:06:11;;;;;;;8.40;6.75;;;;;;;;;;5153727;27;20035;-61
2022/06/14 03:08:52;;;;;;;7.07;5.70;;;;;;;;;;5153506;27;20039;-61
2022/06/14 03:11:22;;;;;;;8.68;6.75;;;;;;;;;;5153778;27;20039;-60
2022/06/14 03:13:52;;;;;;;9.75;6.22;;;;;;;;;;5153829;27;20066;-58
2022/06/14 03:16:28;;;;;;;6.93;5.97;;;;;;;;;;5153603;27;20074;-59
2022/06/14 03:19:26;;;;;;;8.48;6.43;;;;;;;;;;5153565;27;20042;-60
2022/06/14 03:22:16;;;;;;;8.60;5.03;;;;;;;;;;5153601;27;20403;-60
2022/06/14 03:25:02;;;;;;;7.65;5.22;;;;;;;;;;5169108;27;20041;-61
2022/06/14 03:27:40;;;;;;;8.63;5.38;;;;;;;;;;5134191;27;20401;-60
2022/06/14 03:30:20;;;;;;;9.15;5.18;;;;;;;;;;5136851;27;20434;-60
2022/06/14 03:33:05;;;;;;;7.10;5.15;;;;;;;;;;5118747;27;20046;-60
2022/06/14 03:35:47;;;;;;;6.28;4.55;;;;;;;;;;5136729;27;20465;-60
2022/06/14 03:38:48;;;;;;;7.88;4.20;;;;;;;;;;5136861;27;20047;-61
2022/06/14 03:41:20;;;;;;;7.20;4.03;;;;;;;;;;5134195;27;20078;-59
2022/06/14 03:43:49;;;;;;;7.95;4.68;;;;;;;;;;5136422;27;20051;-62
2022/06/14 03:46:20;;;;;;;6.07;4.28;;;;;;;;;;5136651;27;20402;-60
2022/06/14 03:48:56;;;;;;;5.78;4.10;;;;;;;;;;5136628;27;20035;-60
2022/06/14 03:51:40;;;;;;;4.70;3.40;;;;;;;;;;5136513;27;20142;-60
2022/06/14 03:54:26;;;;;;;6.15;4.57;;;;;;;;;;5136212;27;20035;-61
2022/06/14 03:56:53;;;;;;;5.28;3.20;;;;;;;;;;5136019;27;20038;-61
2022/06/14 03:59:26;;;;;;;5.18;3.30;;;;;;;;;;5136207;27;20039;-60
2022/06/14 04:02:02;;;;;;;5.18;2.60;;;;;;;;;;5136236;27;20085;-62
2022/06/14 04:04:48;;;;;;;5.60;3.00;;;;;;;;;;5136158;27;20153;-70
2022/06/14 04:07:38;;;;;;;3.95;2.78;;;;;;;;;;5135942;27;20090;-60
2022/06/14 04:10:37;;;;;;;4.47;2.65;;;;;;;;;;5136067;27;20427;-61
2022/06/14 04:13:07;;;;;;;4.30;2.50;;;;;;;;;;5084856;27;20040;-60
2022/06/14 04:15:52;;;;;;;4.35;2.33;;;;;;;;;;5135817;27;20053;-61
2022/06/14 04:18:40;;;;;;;4.28;2.28;;;;;;;;;;5136177;27;20047;-63
2022/06/14 04:21:29;;;;;;;4.25;2.60;;;;;;;;;;5135820;27;20035;-61
2022/06/14 04:24:12;;;;;;;27.73;15.90;;;;;;;;;;5153798;27;20488;-62
2022/06/14 04:26:47;;;;;;;5.75;3.20;;;;;;;;;;5177371;27;20040;-61
2022/06/14 04:29:25;;;;;;;4.20;2.33;;;;;;;;;;5177200;27;20446;-61
2022/06/14 04:32:07;;;;;;;4.43;2.13;;;;;;;;;;5176996;27;20052;-62
2022/06/14 04:34:49;;;;;;;3.42;1.92;;;;;;;;;;5160075;27;20501;-61
2022/06/14 04:37:27;;;;;;;5.10;2.00;;;;;;;;;;5177135;27;20378;-62
2022/06/14 04:40:23;;;;;;;19.60;13.13;;;;;;;;;;5176877;27;20053;-61
2022/06/14 04:43:11;;;;;;;13.13;6.80;;;;;;;;;;5176923;27;20034;-60
2022/06/14 04:45:47;;;;;;;7.15;2.58;;;;;;;;;;5176775;27;20542;-61
2022/06/14 04:48:24;;;;;;;3.92;1.92;;;;;;;;;;5176882;27;20038;-61
2022/06/14 04:51:05;;;;;;;5.03;1.85;;;;;;;;;;5176561;27;20077;-60
2022/06/14 04:53:41;;;;;;;5.20;2.00;;;;;;;;;;5177000;27;20053;-62
2022/06/14 04:56:34;;;;;;;3.22;1.70;;;;;;;;;;5176618;27;20038;-61
2022/06/14 04:59:15;;;;;;;5.47;1.73;;;;;;;;;;5130836;27;20056;-61
2022/06/14 05:02:15;;;;;;;2.80;1.65;;;;;;;;;;5176658;27;20033;-61
2022/06/14 05:04:54;;;;;;;3.97;1.63;;;;;;;;;;5176449;27;20564;-60
2022/06/14 05:07:27;;;;;;;2.95;1.55;;;;;;;;;;5176638;27;20534;-55
2022/06/14 05:10:07;;;;;;;14.63;7.70;;;;;;;;;;5176499;27;20038;-60
2022/06/14 05:12:55;;;;;;;6.03;2.28;;;;;;;;;;5176498;27;20504;-60
2022/06/14 05:15:37;;;;;;;3.85;1.70;;;;;;;;;;5176390;27;20038;-61
2022/06/14 05:18:17;;;;;;;3.53;1.80;;;;;;;;;;5176216;27;20049;-62
2022/06/14 05:21:02;;;;;;;3.05;1.50;;;;;;;;;;5176343;27;20087;-61
2022/06/14 05:23:36;;;;;;;2.97;1.45;;;;;;;;;;5171076;27;20039;-61
2022/06/14 05:26:16;;;;;;;4.70;1.48;;;;;;;;;;5155265;27;20031;-59
2022/06/14 05:28:46;;;;;;;14.75;7.30;;;;;;;;;;5155196;27;20118;-61
2022/06/14 05:31:46;;;;;;;3.17;1.80;;;;;;;;;;5155071;27;20446;-61
2022/06/14 05:34:24;;;;;;;2.47;1.42;;;;;;;;;;5136771;27;20079;-61
2022/06/14 05:36:59;;;;;;;3.25;1.40;;;;;;;;;;5154956;27;20047;-61
2022/06/14 05:39:37;;;;;;;3.80;1.80;;;;;;;;;;5154937;27;20498;-62
2022/06/14 05:42:17;;;;;;;5.05;1.40;;;;;;;;;;5154686;27;20035;-61
2022/06/14 05:44:46;;;;;;;5.28;1.48;;;;;;;;;;5153322;27;20069;-62
2022/06/14 05:47:18;;;;;;;10.05;5.70;;;;;;;;;;5154696;27;20038;-62
2022/06/14 05:49:53;;;;;;;3.10;1.58;;;;;;;;;;5154059;27;20126;-64
2022/06/14 05:52:30;;;;;;;3.25;1.45;;;;;;;;;;5154760;27;20066;-56
2022/06/14 05:55:05;;;;;;;4.10;1.40;;;;;;;;;;5154568;27;20031;-63
2022/06/14 05:57:39;;;;;;;3.25;1.30;;;;;;;;;;5154523;27;20046;-63
2022/06/14 06:00:22;;;;;;;19.80;9.80;;;;;;;;;;5154701;27;20026;-62
2022/06/14 06:02:55;;;;;;;3.80;1.98;;;;;;;;;;5154601;27;20034;-61
2022/06/14 06:05:39;;;;;;;;;;;;;;;;;;5154994;27;20531;-61
2022/06/14 06:08:12;;;;;;;3.80;1.60;;;;;;;;;;5154287;27;19923;-62
2022/06/14 06:10:43;;;;;;;3.45;1.63;;;;;;;;;;5154352;27;20039;-61
2022/06/14 06:13:32;;;;;;;4.97;2.08;;;;;;;;;;5154328;27;20293;-62
2022/06/14 06:16:13;;;;;;;2.78;1.45;;;;;;;;;;5154337;27;20027;-61
2022/06/14 06:18:49;;;;;;;2.90;1.50;;;;;;;;;;5154317;27;20038;-61
2022/06/14 06:21:32;;;;;;;2.67;1.63;;;;;;;;;;5154300;27;20481;-60
2022/06/14 06:24:17;;;;;;;111.75;60.10;;;;;;;;;;5163723;27;20042;-61
2022/06/14 06:26:51;;;;;;;8.20;4.88;;;;;;;;;;5175020;27;20121;-61
2022/06/14 06:29:48;;;;;;;4.82;1.50;;;;;;;;;;5175007;27;20081;-62
2022/06/14 06:32:18;;;;;;;2.63;1.38;;;;;;;;;;5161914;27;20072;-62
2022/06/14 06:34:48;;;;;;;2.40;1.30;;;;;;;;;;5174944;27;20450;-61
2022/06/14 06:37:30;;;;;;;6.32;1.40;;;;;;;;;;5174956;27;20404;-61
2022/06/14 06:40:06;;;;;;;3.20;1.63;;;;;;;;;;5174994;27;20102;-61
2022/06/14 06:42:46;;;;;;;4.50;1.42;;;;;;;;;;5174739;27;20484;-61
2022/06/14 06:45:24;;;;;;;12.40;7.07;;;;;;;;;;5174521;27;20512;-61
2022/06/14 06:47:51;;;;;;;2.50;1.55;;;;;;;;;;5174786;27;20392;-64
2022/06/14 06:50:36;;;;;;;3.25;1.70;;;;;;;;;;5174892;27;20042;-67
2022/06/14 06:53:09;;;;;;;3.08;1.80;;;;;;;;;;5174669;27;20034;-65
2022/06/14 06:55:43;;;;;;;4.30;1.73;;;;;;;;;;5174524;27;20031;-66
2022/06/14 06:58:39;;;;;;;3.72;1.77;;;;;;;;;;5174673;27;20050;-57
2022/06/14 07:01:16;;;;;;;5.53;3.42;;;;;;;;;;5175161;27;20133;-66
2022/06/14 07:03:48;;;;;;;3.05;1.88;;;;;;;;;;5178926;27;20034;-65
2022/06/14 07:06:26;;;;;;;2.87;1.90;;;;;;;;;;5178859;27;20038;-66
2022/06/14 07:09:18;;;;;;;5.70;1.70;;;;;;;;;;5178615;27;20046;-66
2022/06/14 07:11:51;;;;;;;3.92;1.83;;;;;;;;;;5178824;27;20438;-66
2022/06/14 07:14:26;;;;;;;5.15;1.45;;;;;;;;;;5178907;27;20061;-66
2022/06/14 07:17:12;;;;;;;2.58;1.30;;;;;;;;;;5178422;27;20034;-66
2022/06/14 07:19:54;;;;;;;2.70;1.65;;;;;;;;;;5160221;27;20497;-68
2022/06/14 07:22:43;;;;;;;4.07;1.65;;;;;;;;;;5160213;27;20034;-62
2022/06/14 07:25:22;;;;;;;3.70;1.50;;;;;;;;;;5158507;27;20134;-67
2022/06/14 07:28:14;;;;;;;3.28;1.55;;;;;;;;;;5153074;27;20039;-53
2022/06/14 07:30:49;;;;;;;1.95;1.40;;;;;;;;;;5156919;27;20089;-60
2022/06/14 07:33:18;;;;;;;156.40;72.60;;;;;;;;;;5157592;27;20042;-62
2022/06/14 07:35:51;;;;;;;10.70;5.45;;;;;;;;;;5156635;27;20099;-67
2022/06/14 07:38:25;;;;;;;4.55;1.70;;;;;;;;;;5157657;27;20438;-66
2022/06/14 07:41:06;;;;;;;3.63;1.80;;;;;;;;;;5155834;27;20065;-51
2022/06/14 07:43:58;;;;;;;3.55;1.80;;;;;;;;;;5156348;27;20041;-66
2022/06/14 07:47:11;;;;;;;3.40;1.60;;;;;;;;;;5156922;27;20493;-66
2022/06/14 07:49:56;;;;;;;3.38;1.50;;;;;;;;;;5156111;27;20054;-66
2022/06/14 07:52:42;;;;;;;5.82;2.78;;;;;;;;;;5157059;27;20046;-55
2022/06/14 07:55:21;;;;;;;4.35;2.28;;;;;;;;;;5156929;27;20042;-62
2022/06/14 07:57:58;;;;;;;3.65;1.75;;;;;;;;;;5157156;27;20039;-65
2022/06/14 08:03:25;;;;;;;2.58;1.20;;;;;;;;;;5157001;27;20077;-63
2022/06/14 08:05:54;;;;;;;4.07;1.80;;;;;;;;;;5156619;27;20039;-63
2022/06/14 08:08:27;;;;;;;2.65;1.30;;;;;;;;;;5156850;27;20060;-62
2022/06/14 08:11:00;;;;;;;1.88;1.30;;;;;;;;;;5156332;27;20121;-65
2022/06/14 08:13:34;;;;;;;114.80;78.85;;;;;;;;;;5155845;27;20031;-62
2022/06/14 08:16:07;;;;;;;87.43;34.58;;;;;;;;;;5156538;27;20041;-65
2022/06/14 08:18:41;;;;;;;3.65;1.83;;;;;;;;;;5156521;27;20034;-66
2022/06/14 08:21:16;;;;;;;3.72;1.25;;;;;;;;;;5156473;27;20054;-66
2022/06/14 08:23:54;;;;;;;25.40;7.75;;;;;;;;;;5163590;27;20039;-64
2022/06/14 08:26:29;;;;;;;4.65;1.38;;;;;;;;;;5177464;27;20039;-65
2022/06/14 08:29:15;;;;;;;4.00;1.30;;;;;;;;;;5177192;27;20047;-64
2022/06/14 08:31:48;;;;;;;3.25;1.10;;;;;;;;;;5176985;27;20118;-65
2022/06/14 08:34:30;;;;;;;2.55;1.02;;;;;;;;;;5177137;27;20408;-63
2022/06/14 08:37:06;;;;;;;2.97;1.15;;;;;;;;;;5176911;27;20038;-62
2022/06/14 08:39:39;;;;;;;2.40;1.17;;;;;;;;;;5176980;27;20040;-63
2022/06/14 08:42:27;;;;;;;3.38;1.23;;;;;;;;;;5176677;27;20165;-65
2022/06/14 08:45:25;;;;;;;2.13;0.90;;;;;;;;;;5176492;27;20098;-65
2022/06/14 08:48:04;;;;;;;4.80;2.10;;;;;;;;;;5171450;27;20035;-58
2022/06/14 08:50:47;;;;;;;3.03;1.20;;;;;;;;;;5155830;27;20039;-63
2022/06/14 08:53:52;;;;;;;3.97;1.10;;;;;;;;;;5155828;27;20083;-66
2022/06/14 08:56:50;;;;;;;2.72;1.02;;;;;;;;;;5156010;27;20122;-63
2022/06/14 08:59:42;;;;;;;3.35;1.10;;;;;;;;;;5154831;27;20081;-56
2022/06/14 09:02:28;;;;;;;39.63;24.67;;;;;;;;;;5155755;27;20038;-58
2022/06/14 09:05:29;;;;;;;21.15;11.80;;;;;;;;;;5155515;27;20083;-62
2022/06/14 09:08:15;;;;;;;4.28;2.28;;;;;;;;;;5132594;27;20474;-62
2022/06/14 09:11:01;;;;;;;7.65;4.55;;;;;;;;;;5155456;27;20501;-64
2022/06/14 09:13:53;;;;;;;4.85;2.13;;;;;;;;;;5155352;27;20070;-64
2022/06/14 09:16:58;;;;;;;5.13;2.08;;;;;;;;;;5155597;27;20489;-65
2022/06/14 09:19:51;;;;;;;2.92;1.25;;;;;;;;;;5155467;27;20043;-66
2022/06/14 09:22:18;;;;;;;2.78;1.30;;;;;;;;;;5144737;27;20085;-65
2022/06/14 09:25:24;;;;;;;4.43;1.10;;;;;;;;;;5170286;27;20121;-65
2022/06/14 09:28:16;;;;;;;2.33;1.05;;;;;;;;;;5070930;28;20045;-64
2022/06/14 09:31:02;;;;;;;4.35;1.10;;;;;;;;;;5173610;27;20083;-64
2022/06/14 09:33:49;;;;;;;3.60;1.13;;;;;;;;;;5175966;27;20053;-66
2022/06/14 09:36:42;;;;;;;2.00;0.73;;;;;;;;;;5175783;27;20066;-65
2022/06/14 09:39:26;;;;;;;2.05;0.98;;;;;;;;;;5175888;27;20484;-65
2022/06/14 09:42:12;;;;;;;5.30;1.23;;;;;;;;;;5175882;27;20386;-62
2022/06/14 09:44:48;;;;;;;5.50;2.08;;;;;;;;;;5175465;27;20467;-64
2022/06/14 09:47:30;;;;;;;2.85;1.00;;;;;;;;;;5175575;27;20030;-66
2022/06/14 09:50:19;;;;;;;1.50;1.00;;;;;;;;;;5175683;27;20034;-65
2022/06/14 09:53:04;;;;;;;3.50;1.50;;;;;;;;;;5175716;27;20038;-65
2022/06/14 09:55:56;;;;;;;2.63;1.17;;;;;;;;;;5175483;27;20034;-65
2022/06/14 09:58:44;;;;;;;4.20;1.38;;;;;;;;;;5175347;27;20030;-64
2022/06/14 10:01:56;;;;;;;5.93;1.98;;;;;;;;;;5175534;27;20050;-62
2022/06/14 10:04:35;;;;;;;2.60;1.17;;;;;;;;;;5174793;27;20038;-60
2022/06/14 10:07:05;;;;;;;2.97;1.20;;;;;;;;;;5171496;27;20049;-65
2022/06/14 10:09:49;;;;;;;3.13;1.30;;;;;;;;;;5174596;27;20400;-65
2022/06/14 10:12:55;;;;;;;2.70;1.30;;;;;;;;;;5175342;27;20074;-64
2022/06/14 10:15:46;;;;;;;2.72;1.20;;;;;;;;;;5175285;27;20040;-53
2022/06/14 10:18:51;;;;;;;2.22;1.15;;;;;;;;;;5175003;27;20090;-68
2022/06/14 10:21:31;;;;;;;2.35;1.00;;;;;;;;;;5175186;27;20041;-68
2022/06/14 10:24:37;;;;;;;2.53;1.05;;;;;;;;;;5165583;27;20077;-68
2022/06/14 10:30:08;;;;;;;3.95;1.13;;;;;;;;;;5153223;27;20043;-68
2022/06/14 10:32:38;;;;;;;1.88;1.10;;;;;;;;;;5153741;27;20043;-67
2022/06/14 10:35:28;;;;;;;2.58;0.93;;;;;;;;;;5153468;27;20039;-67
2022/06/14 10:38:11;;;;;;;2.15;1.08;;;;;;;;;;5154013;27;20114;-67
2022/06/14 10:40:52;;;;;;;4.85;2.25;;;;;;;;;;5153907;27;20080;-65
2022/06/14 10:43:20;;;;;;;4.57;2.10;;;;;;;;;;5153838;27;20050;-67
2022/06/14 10:46:08;;;;;;;1.85;0.80;;;;;;;;;;5153395;27;20035;-69
2022/06/14 10:48:52;;;;;;;3.78;0.80;;;;;;;;;;5154067;27;20046;-67
2022/06/14 10:51:50;;;;;;;2.88;0.90;;;;;;;;;;5153843;27;20038;-66
2022/06/14 10:54:29;;;;;;;3.67;0.90;;;;;;;;;;5154036;27;20046;-67
2022/06/14 10:57:24;;;;;;;5.10;1.65;;;;;;;;;;5152049;27;20058;-64
2022/06/14 11:00:16;;;;;;;2.42;1.10;;;;;;;;;;5153849;27;20035;-65
2022/06/14 11:02:59;;;;;;;2.88;1.02;;;;;;;;;;5152236;27;20193;-68
2022/06/14 11:05:37;;;;;;;3.58;1.23;;;;;;;;;;5151683;27;20038;-68
2022/06/14 11:08:19;;;;;;;3.65;0.98;;;;;;;;;;5151937;27;20534;-68
2022/06/14 11:10:49;;;;;;;1.35;0.70;;;;;;;;;;5153656;27;20050;-71
2022/06/14 11:13:23;;;;;;;1.90;0.90;;;;;;;;;;5153772;27;20066;-67
2022/06/14 11:16:15;;;;;;;2.70;1.20;;;;;;;;;;5154055;27;20042;-67
2022/06/14 11:18:48;;;;;;;1.80;0.85;;;;;;;;;;5153583;27;20103;-66
2022/06/14 11:21:52;;;;;;;1.83;0.60;;;;;;;;;;5153505;27;20439;-69
2022/06/14 11:24:37;;;;;;;3.40;1.60;;;;;;;;;;5166088;27;20038;-69
2022/06/14 11:27:18;;;;;;;1.25;0.60;;;;;;;;;;5174327;27;20046;-68
2022/06/14 11:30:20;;;;;;;1.83;0.50;;;;;;;;;;5174267;27;20039;-66
2022/06/14 11:32:57;;;;;;;0.98;0.60;;;;;;;;;;5174396;27;20041;-70
2022/06/14 11:35:39;;;;;;;1.90;0.60;;;;;;;;;;5156080;27;20038;-58
2022/06/14 11:38:36;;;;;;;4.53;2.17;;;;;;;;;;5170191;27;20200;-68
2022/06/14 11:41:06;;;;;;;5.82;1.10;;;;;;;;;;5152923;27;20050;-66
2022/06/14 11:43:36;;;;;;;3.05;0.90;;;;;;;;;;5152580;27;20134;-62
2022/06/14 11:46:33;;;;;;;4.03;1.13;;;;;;;;;;5152577;27;20035;-68
2022/06/14 11:49:24;;;;;;;3.30;1.40;;;;;;;;;;5155404;27;20038;-70
2022/06/14 11:52:21;;;;;;;1.52;0.90;;;;;;;;;;5156618;27;20103;-68
2022/06/14 11:55:24;;;;;;;3.47;1.30;;;;;;;;;;5138093;27;20073;-67
2022/06/14 11:58:01;;;;;;;1.85;0.90;;;;;;;;;;5152976;27;20045;-71
2022/06/14 12:00:55;;;;;;;1.52;0.90;;;;;;;;;;5155788;27;20043;-66
2022/06/14 12:03:35;;;;;;;1.77;0.95;;;;;;;;;;5156535;27;20046;-52
2022/06/14 12:06:29;;;;;;;2.78;0.85;;;;;;;;;;5156482;27;20034;-63
2022/06/14 12:09:32;;;;;;;2.10;1.00;;;;;;;;;;5156550;27;20121;-65
2022/06/14 12:12:01;;;;;;;11.63;6.40;;;;;;;;;;5156249;27;20068;-67
2022/06/14 12:14:53;;;;;;;2.65;1.40;;;;;;;;;;5156240;27;20402;-68
2022/06/14 12:17:28;;;;;;;4.32;1.33;;;;;;;;;;5156558;27;20117;-68
2022/06/14 12:20:10;;;;;;;3.05;0.98;;;;;;;;;;5156856;27;20393;-67
2022/06/14 12:22:45;;;;;;;3.75;1.48;;;;;;;;;;5156384;27;20107;-67
2022/06/14 12:28:44;;;;;;;3.80;1.30;;;;;;;;;;5140346;27;20103;-68
2022/06/14 12:31:16;;;;;;;2.22;1.10;;;;;;;;;;5155112;27;20054;-65
2022/06/14 12:33:48;;;;;;;2.53;1.10;;;;;;;;;;5156050;27;20117;-69
2022/06/14 12:36:21;;;;;;;2.95;1.10;;;;;;;;;;5155574;27;20282;-67
2022/06/14 12:38:53;;;;;;;2.83;1.08;;;;;;;;;;5155815;27;20035;-70
2022/06/14 12:41:34;;;;;;;2.00;0.90;;;;;;;;;;5155401;27;20035;-67
2022/06/14 12:44:02;;;;;;;5.40;1.00;;;;;;;;;;5155082;27;20053;-65
2022/06/14 12:46:35;;;;;;;3.10;1.60;;;;;;;;;;5155406;27;20508;-69
2022/06/14 12:49:29;;;;;;;3.05;1.00;;;;;;;;;;5155748;27;20103;-69
2022/06/14 12:52:03;;;;;;;2.55;1.38;;;;;;;;;;5155338;27;20382;-70
2022/06/14 12:55:05;;;;;;;3.28;1.17;;;;;;;;;;5155607;27;20126;-59
2022/06/14 12:57:50;;;;;;;3.33;1.85;;;;;;;;;;5155642;27;20515;-70
2022/06/14 13:00:51;;;;;;;2.50;1.55;;;;;;;;;;5155028;27;20071;-70
2022/06/14 13:03:46;;;;;;;6.18;4.28;;;;;;;;;;5154398;27;20468;-70
2022/06/14 13:06:50;;;;;;;4.93;1.40;;;;;;;;;;5153158;27;20043;-69
2022/06/14 13:09:45;;;;;;;2.05;1.08;;;;;;;;;;5153325;27;20035;-69
2022/06/14 13:12:43;;;;;;;3.60;1.23;;;;;;;;;;5153103;27;20405;-69
2022/06/14 13:15:26;;;;;;;4.70;1.15;;;;;;;;;;5153265;27;20043;-70
2022/06/14 13:18:11;;;;;;;3.72;1.73;;;;;;;;;;5153596;27;20493;-65
2022/06/14 13:20:54;;;;;;;1.80;1.20;;;;;;;;;;5154346;27;20104;-71
2022/06/14 13:23:35;;;;;;;3.00;1.30;;;;;;;;;;5158719;27;20042;-69
2022/06/14 13:26:24;;;;;;;4.88;2.17;;;;;;;;;;5175769;27;20469;-70
2022/06/14 13:29:11;;;;;;;3.28;1.27;;;;;;;;;;5167339;27;20074;-71
2022/06/14 13:31:55;;;;;;;2.08;1.25;;;;;;;;;;5153763;27;20042;-71
2022/06/14 13:34:49;;;;;;;2.55;1.17;;;;;;;;;;5155039;27;20054;-70
2022/06/14 13:37:44;;;;;;;5.10;1.20;;;;;;;;;;5155107;27;20034;-70
2022/06/14 13:40:31;;;;;;;3.72;1.10;;;;;;;;;;5154955;27;20045;-72
2022/06/14 13:43:08;;;;;;;4.60;1.08;;;;;;;;;;5154885;27;20374;-67
2022/06/14 13:45:59;;;;;;;1.38;1.10;;;;;;;;;;5154747;27;20042;-71
2022/06/14 13:48:44;;;;;;;3.13;1.10;;;;;;;;;;5154776;27;20035;-71
2022/06/14 13:51:17;;;;;;;4.53;1.13;;;;;;;;;;5154617;27;20051;-69
2022/06/14 13:54:18;;;;;;;2.13;1.40;;;;;;;;;;5154741;27;20034;-68
2022/06/14 13:57:13;;;;;;;3.05;1.20;;;;;;;;;;5154654;27;20034;-69
2022/06/14 13:59:47;;;;;;;4.13;1.25;;;;;;;;;;5154808;27;20035;-71
2022/06/14 14:02:40;;;;;;;3.33;1.30;;;;;;;;;;5154521;27;20042;-68
2022/06/14 14:05:27;;;;;;;1.92;1.10;;;;;;;;;;5154380;27;20034;-71
2022/06/14 14:07:56;;;;;;;51.00;29.52;;;;;;;;;;5138422;27;20065;-68
2022/06/14 14:10:26;;;;;;;6.32;3.42;;;;;;;;;;5153934;27;20043;-71
2022/06/14 14:13:15;;;;;;;4.47;1.67;;;;;;;;;;5154516;27;20035;-58
2022/06/14 14:15:50;;;;;;;3.85;1.55;;;;;;;;;;5154263;27;20073;-73
2022/06/14 14:18:43;;;;;;;2.50;1.15;;;;;;;;;;5154209;27;20043;-72
2022/06/14 14:21:34;;;;;;;2.97;1.33;;;;;;;;;;5154081;27;20042;-71
2022/06/14 14:24:19;;;;;;;5.70;1.40;;;;;;;;;;5163856;27;20046;-71
2022/06/14 14:26:56;;;;;;;2.88;1.00;;;;;;;;;;5175104;27;20046;-70
2022/06/14 14:29:28;;;;;;;1.77;1.08;;;;;;;;;;5175029;27;20046;-59
2022/06/14 14:32:07;;;;;;;2.00;1.08;;;;;;;;;;5174691;27;20057;-72
2022/06/14 14:34:44;;;;;;;2.65;1.17;;;;;;;;;;5174979;27;20070;-69
2022/06/14 14:37:18;;;;;;;1.45;0.85;;;;;;;;;;5155724;27;20047;-71
2022/06/14 14:40:01;;;;;;;2.05;0.70;;;;;;;;;;5154045;27;20039;-72
2022/06/14 14:42:33;;;;;;;2.50;0.93;;;;;;;;;;5154009;27;20034;-71
2022/06/14 14:45:04;;;;;;;3.77;1.00;;;;;;;;;;5153682;27;20550;-71
2022/06/14 14:47:42;;;;;;;2.53;1.15;;;;;;;;;;5154008;27;20296;-71
2022/06/14 14:50:43;;;;;;;2.72;1.00;;;;;;;;;;5153792;27;20050;-70
2022/06/14 14:53:19;;;;;;;1.42;0.90;;;;;;;;;;5153523;27;20039;-71
2022/06/14 14:56:14;;;;;;;7.32;1.10;;;;;;;;;;5154118;27;20039;-71
2022/06/14 14:58:54;;;;;;;3.08;0.80;;;;;;;;;;5736030;22;20065;-68
2022/06/14 15:11:08;;;;;;;1.83;1.00;;;;;;;;;;5038520;24;20058;-67
2022/06/14 15:13:56;;;;;;;11.68;6.43;;;;;;;;;;4823055;29;20042;-52
2022/06/14 15:16:36;;;;;;;2.03;0.95;;;;;;;;;;4822933;29;20049;-62
2022/06/14 15:22:29;;;;;;;4.60;1.15;;;;;;;;;;4824153;29;20038;-62
2022/06/14 15:25:07;;;;;;;1.33;0.80;;;;;;;;;;4826577;29;20530;-59
2022/06/14 15:27:45;;;;;;;2.17;1.10;;;;;;;;;;4826665;29;20074;-61
2022/06/14 15:30:34;;;;;;;3.15;0.90;;;;;;;;;;4808308;29;20047;-62
2022/06/14 15:33:46;;;;;;;2.25;1.48;;;;;;;;;;4808518;29;20169;-61
2022/06/14 15:36:38;;;;;;;6.88;3.92;;;;;;;;;;4808597;29;20106;-62
2022/06/14 15:39:28;;;;;;;3.03;1.35;;;;;;;;;;4808161;29;20047;-59
2022/06/14 15:42:27;;;;;;;4.75;1.27;;;;;;;;;;4808087;29;20078;-60
2022/06/14 15:44:55;;;;;;;3.22;1.10;;;;;;;;;;4808135;29;20051;-60
2022/06/14 15:47:35;;;;;;;2.25;1.05;;;;;;;;;;4807836;29;20061;-60
2022/06/14 15:50:24;;;;;;;1.88;0.88;;;;;;;;;;4834211;29;20118;-60
2022/06/14 15:52:55;;;;;;;2.83;0.90;;;;;;;;;;4844324;29;20105;-60
2022/06/14 15:55:27;;;;;;;3.03;0.93;;;;;;;;;;4844493;29;20065;-62
2022/06/14 15:58:05;;;;;;;3.50;1.20;;;;;;;;;;4844231;29;20053;-59
2022/06/14 16:00:37;;;;;;;2.60;1.40;;;;;;;;;;4844351;29;20078;-59
2022/06/14 16:03:16;;;;;;;3.10;1.25;;;;;;;;;;4844455;29;20046;-59
2022/06/14 16:05:58;;;;;;;2.65;1.30;;;;;;;;;;4844242;29;20161;-60
2022/06/14 16:08:29;;;;;;;2.75;1.17;;;;;;;;;;4844157;29;20045;-60
2022/06/14 16:11:01;;;;;;;16.45;9.23;;;;;;;;;;4842752;29;20105;-61
2022/06/14 16:13:34;;;;;;;3.72;1.75;;;;;;;;;;4844164;29;20473;-61
2022/06/14 16:16:31;;;;;;;5.80;1.65;;;;;;;;;;4844040;29;20439;-61
2022/06/14 16:19:16;;;;;;;3.25;1.00;;;;;;;;;;4844171;29;20446;-63
2022/06/14 16:21:58;;;;;;;2.22;1.00;;;;;;;;;;4843990;29;20065;-60
2022/06/14 16:24:29;;;;;;;3.05;1.08;;;;;;;;;;4843810;29;20094;-59
2022/06/14 16:27:24;;;;;;;2.60;1.00;;;;;;;;;;4843694;29;20053;-60